sensor_id;sensor_type;location;lat;lon;timestamp;P1;durP1;ratioP1;P2;durP2;ratioP2
18596;SDS011;9428;50.950;6.912;2022-11-15T00:01:44;16.25;;;7.65;;
18596;SDS011;9428;50.950;6.912;2022-11-15T00:04:33;11.10;;;6.78;;
18596;SDS011;9428;50.950;6.912;2022-11-15T00:07:20;14.40;;;8.48;;
18596;SDS011;9428;50.950;6.912;2022-11-15T00:10:07;12.20;;;7.85;;
18596;SDS011;9428;50.950;6.912;2022-11-15T00:12:55;11.25;;;7.53;;
18596;SDS011;9428;50.950;6.912;2022-11-15T00:15:42;11.48;;;7.05;;
18596;SDS011;9428;50.950;6.912;2022-11-15T00:18:29;12.98;;;7.68;;
18596;SDS011;9428;50.950;6.912;2022-11-15T00:21:18;13.02;;;8.00;;
18596;SDS011;9428;50.950;6.912;2022-11-15T00:24:06;10.23;;;7.10;;
18596;SDS011;9428;50.950;6.912;2022-11-15T00:26:53;11.40;;;7.50;;
18596;SDS011;9428;50.950;6.912;2022-11-15T00:29:40;11.60;;;8.05;;
18596;SDS011;9428;50.950;6.912;2022-11-15T00:32:30;11.70;;;7.55;;
18596;SDS011;9428;50.950;6.912;2022-11-15T00:35:18;11.73;;;8.02;;
18596;SDS011;9428;50.950;6.912;2022-11-15T00:38:07;15.40;;;7.53;;
18596;SDS011;9428;50.950;6.912;2022-11-15T00:40:54;12.52;;;7.53;;
18596;SDS011;9428;50.950;6.912;2022-11-15T00:43:41;13.23;;;8.52;;
18596;SDS011;9428;50.950;6.912;2022-11-15T00:46:29;12.77;;;7.65;;
18596;SDS011;9428;50.950;6.912;2022-11-15T00:49:16;10.98;;;8.18;;
18596;SDS011;9428;50.950;6.912;2022-11-15T00:52:03;12.13;;;7.30;;
18596;SDS011;9428;50.950;6.912;2022-11-15T00:54:52;11.60;;;7.50;;
18596;SDS011;9428;50.950;6.912;2022-11-15T00:57:39;10.32;;;7.55;;
18596;SDS011;9428;50.950;6.912;2022-11-15T01:00:26;9.43;;;7.40;;
18596;SDS011;9428;50.950;6.912;2022-11-15T01:03:14;9.90;;;6.93;;
18596;SDS011;9428;50.950;6.912;2022-11-15T01:06:01;10.90;;;7.47;;
18596;SDS011;9428;50.950;6.912;2022-11-15T01:08:48;10.65;;;7.40;;
18596;SDS011;9428;50.950;6.912;2022-11-15T01:11:37;9.93;;;7.18;;
18596;SDS011;9428;50.950;6.912;2022-11-15T01:14:24;11.57;;;8.38;;
18596;SDS011;9428;50.950;6.912;2022-11-15T01:17:12;9.88;;;7.47;;
18596;SDS011;9428;50.950;6.912;2022-11-15T01:19:59;12.15;;;7.65;;
18596;SDS011;9428;50.950;6.912;2022-11-15T01:22:46;11.07;;;7.63;;
18596;SDS011;9428;50.950;6.912;2022-11-15T01:25:33;11.55;;;7.68;;
18596;SDS011;9428;50.950;6.912;2022-11-15T01:28:22;14.95;;;7.93;;
18596;SDS011;9428;50.950;6.912;2022-11-15T01:31:11;11.02;;;7.40;;
18596;SDS011;9428;50.950;6.912;2022-11-15T01:33:59;14.75;;;7.35;;
18596;SDS011;9428;50.950;6.912;2022-11-15T01:36:47;13.10;;;8.05;;
18596;SDS011;9428;50.950;6.912;2022-11-15T01:39:34;10.55;;;7.20;;
18596;SDS011;9428;50.950;6.912;2022-11-15T01:42:21;14.85;;;8.65;;
18596;SDS011;9428;50.950;6.912;2022-11-15T01:45:10;12.02;;;8.18;;
18596;SDS011;9428;50.950;6.912;2022-11-15T01:48:01;12.68;;;7.80;;
18596;SDS011;9428;50.950;6.912;2022-11-15T01:50:48;11.77;;;7.95;;
18596;SDS011;9428;50.950;6.912;2022-11-15T01:53:36;11.65;;;8.07;;
18596;SDS011;9428;50.950;6.912;2022-11-15T01:56:27;12.07;;;7.68;;
18596;SDS011;9428;50.950;6.912;2022-11-15T01:59:17;11.52;;;7.68;;
18596;SDS011;9428;50.950;6.912;2022-11-15T02:02:07;11.80;;;8.38;;
18596;SDS011;9428;50.950;6.912;2022-11-15T02:04:54;13.48;;;8.45;;
18596;SDS011;9428;50.950;6.912;2022-11-15T02:07:42;11.65;;;8.05;;
18596;SDS011;9428;50.950;6.912;2022-11-15T02:10:29;11.05;;;7.55;;
18596;SDS011;9428;50.950;6.912;2022-11-15T02:13:17;13.10;;;7.50;;
18596;SDS011;9428;50.950;6.912;2022-11-15T02:16:08;11.20;;;7.07;;
18596;SDS011;9428;50.950;6.912;2022-11-15T02:19:03;12.48;;;8.35;;
18596;SDS011;9428;50.950;6.912;2022-11-15T02:22:10;13.70;;;8.07;;
18596;SDS011;9428;50.950;6.912;2022-11-15T02:25:13;13.60;;;7.95;;
18596;SDS011;9428;50.950;6.912;2022-11-15T02:28:33;14.80;;;8.23;;
18596;SDS011;9428;50.950;6.912;2022-11-15T02:31:33;12.70;;;7.90;;
18596;SDS011;9428;50.950;6.912;2022-11-15T02:34:27;13.77;;;7.82;;
18596;SDS011;9428;50.950;6.912;2022-11-15T02:37:21;14.38;;;8.15;;
18596;SDS011;9428;50.950;6.912;2022-11-15T02:40:17;10.13;;;7.45;;
18596;SDS011;9428;50.950;6.912;2022-11-15T02:43:14;12.60;;;7.70;;
18596;SDS011;9428;50.950;6.912;2022-11-15T02:46:28;12.07;;;7.30;;
18596;SDS011;9428;50.950;6.912;2022-11-15T02:49:39;13.13;;;7.85;;
18596;SDS011;9428;50.950;6.912;2022-11-15T02:52:29;12.82;;;8.10;;
18596;SDS011;9428;50.950;6.912;2022-11-15T02:55:26;13.48;;;8.20;;
18596;SDS011;9428;50.950;6.912;2022-11-15T02:58:20;10.05;;;7.15;;
18596;SDS011;9428;50.950;6.912;2022-11-15T03:01:31;11.70;;;7.75;;
18596;SDS011;9428;50.950;6.912;2022-11-15T03:04:34;8.25;;;6.70;;
18596;SDS011;9428;50.950;6.912;2022-11-15T03:07:30;10.00;;;8.07;;
18596;SDS011;9428;50.950;6.912;2022-11-15T03:10:23;11.90;;;6.88;;
18596;SDS011;9428;50.950;6.912;2022-11-15T03:13:21;8.85;;;6.28;;
18596;SDS011;9428;50.950;6.912;2022-11-15T03:16:17;8.55;;;6.78;;
18596;SDS011;9428;50.950;6.912;2022-11-15T03:19:13;9.00;;;7.03;;
18596;SDS011;9428;50.950;6.912;2022-11-15T03:22:18;11.40;;;7.53;;
18596;SDS011;9428;50.950;6.912;2022-11-15T03:25:09;15.93;;;7.00;;
18596;SDS011;9428;50.950;6.912;2022-11-15T03:28:03;7.90;;;6.25;;
18596;SDS011;9428;50.950;6.912;2022-11-15T03:30:53;9.43;;;6.57;;
18596;SDS011;9428;50.950;6.912;2022-11-15T03:33:43;10.50;;;6.90;;
18596;SDS011;9428;50.950;6.912;2022-11-15T03:36:32;10.05;;;5.82;;
18596;SDS011;9428;50.950;6.912;2022-11-15T03:39:21;6.93;;;6.07;;
18596;SDS011;9428;50.950;6.912;2022-11-15T03:42:12;8.90;;;6.53;;
18596;SDS011;9428;50.950;6.912;2022-11-15T03:45:10;8.98;;;6.30;;
18596;SDS011;9428;50.950;6.912;2022-11-15T03:48:02;8.10;;;6.20;;
18596;SDS011;9428;50.950;6.912;2022-11-15T03:50:55;9.07;;;6.00;;
18596;SDS011;9428;50.950;6.912;2022-11-15T03:53:44;13.70;;;6.53;;
18596;SDS011;9428;50.950;6.912;2022-11-15T03:56:32;7.75;;;5.50;;
18596;SDS011;9428;50.950;6.912;2022-11-15T03:59:19;11.57;;;5.93;;
18596;SDS011;9428;50.950;6.912;2022-11-15T04:02:07;11.05;;;6.30;;
18596;SDS011;9428;50.950;6.912;2022-11-15T04:04:54;10.90;;;5.88;;
18596;SDS011;9428;50.950;6.912;2022-11-15T04:07:41;7.70;;;6.28;;
18596;SDS011;9428;50.950;6.912;2022-11-15T04:10:30;10.00;;;5.95;;
18596;SDS011;9428;50.950;6.912;2022-11-15T04:13:17;7.72;;;6.10;;
18596;SDS011;9428;50.950;6.912;2022-11-15T04:16:04;8.90;;;6.38;;
18596;SDS011;9428;50.950;6.912;2022-11-15T04:18:52;8.65;;;6.30;;
18596;SDS011;9428;50.950;6.912;2022-11-15T04:21:53;7.40;;;6.05;;
18596;SDS011;9428;50.950;6.912;2022-11-15T04:24:58;7.80;;;6.15;;
18596;SDS011;9428;50.950;6.912;2022-11-15T04:27:46;9.25;;;6.45;;
18596;SDS011;9428;50.950;6.912;2022-11-15T04:30:33;8.45;;;6.68;;
18596;SDS011;9428;50.950;6.912;2022-11-15T04:33:21;9.55;;;6.53;;
18596;SDS011;9428;50.950;6.912;2022-11-15T04:36:08;7.63;;;6.18;;
18596;SDS011;9428;50.950;6.912;2022-11-15T04:39:12;8.05;;;6.10;;
18596;SDS011;9428;50.950;6.912;2022-11-15T04:41:59;8.43;;;6.43;;
18596;SDS011;9428;50.950;6.912;2022-11-15T04:44:48;10.27;;;7.05;;
18596;SDS011;9428;50.950;6.912;2022-11-15T04:47:35;10.48;;;6.60;;
18596;SDS011;9428;50.950;6.912;2022-11-15T04:50:22;9.70;;;6.57;;
18596;SDS011;9428;50.950;6.912;2022-11-15T04:53:10;9.25;;;6.53;;
18596;SDS011;9428;50.950;6.912;2022-11-15T04:55:57;9.95;;;6.45;;
18596;SDS011;9428;50.950;6.912;2022-11-15T04:58:44;8.98;;;5.80;;
18596;SDS011;9428;50.950;6.912;2022-11-15T05:01:33;8.00;;;6.00;;
18596;SDS011;9428;50.950;6.912;2022-11-15T05:04:20;9.13;;;6.18;;
18596;SDS011;9428;50.950;6.912;2022-11-15T05:07:06;7.05;;;5.57;;
18596;SDS011;9428;50.950;6.912;2022-11-15T05:09:53;10.80;;;6.05;;
18596;SDS011;9428;50.950;6.912;2022-11-15T05:12:41;6.88;;;5.53;;
18596;SDS011;9428;50.950;6.912;2022-11-15T05:15:28;7.57;;;5.65;;
18596;SDS011;9428;50.950;6.912;2022-11-15T05:18:17;7.75;;;5.85;;
18596;SDS011;9428;50.950;6.912;2022-11-15T05:21:04;7.85;;;5.63;;
18596;SDS011;9428;50.950;6.912;2022-11-15T05:23:52;7.65;;;5.78;;
18596;SDS011;9428;50.950;6.912;2022-11-15T05:26:39;7.10;;;5.32;;
18596;SDS011;9428;50.950;6.912;2022-11-15T05:29:26;6.85;;;5.05;;
18596;SDS011;9428;50.950;6.912;2022-11-15T05:32:14;6.57;;;5.45;;
18596;SDS011;9428;50.950;6.912;2022-11-15T05:35:05;7.20;;;5.07;;
18596;SDS011;9428;50.950;6.912;2022-11-15T05:37:55;6.30;;;5.45;;
18596;SDS011;9428;50.950;6.912;2022-11-15T05:40:42;7.40;;;5.28;;
18596;SDS011;9428;50.950;6.912;2022-11-15T05:43:30;5.90;;;5.00;;
18596;SDS011;9428;50.950;6.912;2022-11-15T05:46:19;6.68;;;4.70;;
18596;SDS011;9428;50.950;6.912;2022-11-15T05:49:07;5.78;;;4.43;;
18596;SDS011;9428;50.950;6.912;2022-11-15T05:51:58;7.75;;;4.68;;
18596;SDS011;9428;50.950;6.912;2022-11-15T05:54:46;6.70;;;4.72;;
18596;SDS011;9428;50.950;6.912;2022-11-15T05:57:34;5.00;;;4.18;;
18596;SDS011;9428;50.950;6.912;2022-11-15T06:00:21;8.68;;;5.07;;
18596;SDS011;9428;50.950;6.912;2022-11-15T06:03:08;10.48;;;5.30;;
18596;SDS011;9428;50.950;6.912;2022-11-15T06:05:56;6.57;;;5.18;;
18596;SDS011;9428;50.950;6.912;2022-11-15T06:08:45;6.60;;;4.88;;
18596;SDS011;9428;50.950;6.912;2022-11-15T06:11:33;6.38;;;4.38;;
18596;SDS011;9428;50.950;6.912;2022-11-15T06:14:20;8.05;;;4.82;;
18596;SDS011;9428;50.950;6.912;2022-11-15T06:17:07;6.13;;;4.80;;
18596;SDS011;9428;50.950;6.912;2022-11-15T06:19:54;5.72;;;4.60;;
18596;SDS011;9428;50.950;6.912;2022-11-15T06:22:42;7.18;;;5.10;;
18596;SDS011;9428;50.950;6.912;2022-11-15T06:25:30;7.28;;;5.40;;
18596;SDS011;9428;50.950;6.912;2022-11-15T06:28:18;6.03;;;4.70;;
18596;SDS011;9428;50.950;6.912;2022-11-15T06:31:06;7.07;;;5.25;;
18596;SDS011;9428;50.950;6.912;2022-11-15T06:33:54;5.45;;;4.50;;
18596;SDS011;9428;50.950;6.912;2022-11-15T06:36:41;7.28;;;4.22;;
18596;SDS011;9428;50.950;6.912;2022-11-15T06:39:29;5.90;;;4.70;;
18596;SDS011;9428;50.950;6.912;2022-11-15T06:42:17;8.60;;;4.43;;
18596;SDS011;9428;50.950;6.912;2022-11-15T06:45:05;6.35;;;4.25;;
18596;SDS011;9428;50.950;6.912;2022-11-15T06:47:52;7.80;;;3.95;;
18596;SDS011;9428;50.950;6.912;2022-11-15T06:50:40;5.50;;;4.03;;
18596;SDS011;9428;50.950;6.912;2022-11-15T06:53:27;5.93;;;3.97;;
18596;SDS011;9428;50.950;6.912;2022-11-15T06:56:16;6.95;;;4.20;;
18596;SDS011;9428;50.950;6.912;2022-11-15T06:59:05;4.75;;;3.70;;
18596;SDS011;9428;50.950;6.912;2022-11-15T07:01:52;5.00;;;3.80;;
18596;SDS011;9428;50.950;6.912;2022-11-15T07:04:39;7.65;;;4.00;;
18596;SDS011;9428;50.950;6.912;2022-11-15T07:07:26;6.07;;;4.18;;
18596;SDS011;9428;50.950;6.912;2022-11-15T07:10:14;5.43;;;3.40;;
18596;SDS011;9428;50.950;6.912;2022-11-15T07:13:02;6.53;;;3.58;;
18596;SDS011;9428;50.950;6.912;2022-11-15T07:15:50;5.80;;;3.67;;
18596;SDS011;9428;50.950;6.912;2022-11-15T07:18:38;7.35;;;3.55;;
18596;SDS011;9428;50.950;6.912;2022-11-15T07:21:26;5.75;;;3.13;;
18596;SDS011;9428;50.950;6.912;2022-11-15T07:24:13;3.92;;;2.90;;
18596;SDS011;9428;50.950;6.912;2022-11-15T07:27:00;5.75;;;3.50;;
18596;SDS011;9428;50.950;6.912;2022-11-15T07:29:47;5.57;;;3.63;;
18596;SDS011;9428;50.950;6.912;2022-11-15T07:32:36;6.90;;;4.38;;
18596;SDS011;9428;50.950;6.912;2022-11-15T07:35:23;4.53;;;3.72;;
18596;SDS011;9428;50.950;6.912;2022-11-15T07:38:12;4.45;;;3.47;;
18596;SDS011;9428;50.950;6.912;2022-11-15T07:41:00;4.22;;;3.50;;
18596;SDS011;9428;50.950;6.912;2022-11-15T07:43:51;6.03;;;3.45;;
18596;SDS011;9428;50.950;6.912;2022-11-15T07:46:38;8.00;;;3.22;;
18596;SDS011;9428;50.950;6.912;2022-11-15T07:49:27;10.88;;;3.53;;
18596;SDS011;9428;50.950;6.912;2022-11-15T07:52:14;5.47;;;3.05;;
18596;SDS011;9428;50.950;6.912;2022-11-15T07:55:03;4.63;;;3.10;;
18596;SDS011;9428;50.950;6.912;2022-11-15T07:57:51;7.13;;;3.22;;
18596;SDS011;9428;50.950;6.912;2022-11-15T08:00:38;15.70;;;3.10;;
18596;SDS011;9428;50.950;6.912;2022-11-15T08:03:25;10.93;;;2.70;;
18596;SDS011;9428;50.950;6.912;2022-11-15T08:06:14;5.85;;;2.10;;
18596;SDS011;9428;50.950;6.912;2022-11-15T08:09:01;2.33;;;1.70;;
18596;SDS011;9428;50.950;6.912;2022-11-15T08:11:48;3.08;;;1.70;;
18596;SDS011;9428;50.950;6.912;2022-11-15T08:14:36;4.28;;;1.73;;
18596;SDS011;9428;50.950;6.912;2022-11-15T08:17:23;3.90;;;1.40;;
18596;SDS011;9428;50.950;6.912;2022-11-15T08:20:11;2.40;;;1.83;;
18596;SDS011;9428;50.950;6.912;2022-11-15T08:23:00;2.55;;;1.52;;
18596;SDS011;9428;50.950;6.912;2022-11-15T08:25:48;4.43;;;2.20;;
18596;SDS011;9428;50.950;6.912;2022-11-15T08:28:36;3.63;;;1.73;;
18596;SDS011;9428;50.950;6.912;2022-11-15T08:31:23;2.33;;;1.88;;
18596;SDS011;9428;50.950;6.912;2022-11-15T08:34:10;3.15;;;2.15;;
18596;SDS011;9428;50.950;6.912;2022-11-15T08:36:57;3.55;;;2.20;;
18596;SDS011;9428;50.950;6.912;2022-11-15T08:39:46;3.00;;;1.30;;
18596;SDS011;9428;50.950;6.912;2022-11-15T08:42:33;2.38;;;1.70;;
18596;SDS011;9428;50.950;6.912;2022-11-15T08:45:21;2.10;;;1.48;;
18596;SDS011;9428;50.950;6.912;2022-11-15T08:48:08;4.93;;;1.40;;
18596;SDS011;9428;50.950;6.912;2022-11-15T08:50:55;3.42;;;1.50;;
18596;SDS011;9428;50.950;6.912;2022-11-15T08:53:43;4.57;;;1.70;;
18596;SDS011;9428;50.950;6.912;2022-11-15T08:56:32;3.92;;;1.65;;
18596;SDS011;9428;50.950;6.912;2022-11-15T08:59:19;3.33;;;1.80;;
18596;SDS011;9428;50.950;6.912;2022-11-15T09:02:06;1.75;;;1.35;;
18596;SDS011;9428;50.950;6.912;2022-11-15T09:04:57;3.05;;;1.55;;
18596;SDS011;9428;50.950;6.912;2022-11-15T09:07:45;2.47;;;1.50;;
18596;SDS011;9428;50.950;6.912;2022-11-15T09:10:32;4.25;;;1.67;;
18596;SDS011;9428;50.950;6.912;2022-11-15T09:13:20;3.53;;;1.55;;
18596;SDS011;9428;50.950;6.912;2022-11-15T09:16:08;2.38;;;1.30;;
18596;SDS011;9428;50.950;6.912;2022-11-15T09:18:57;3.15;;;1.48;;
18596;SDS011;9428;50.950;6.912;2022-11-15T09:21:44;2.75;;;1.20;;
18596;SDS011;9428;50.950;6.912;2022-11-15T09:24:31;2.28;;;1.23;;
18596;SDS011;9428;50.950;6.912;2022-11-15T09:27:18;3.92;;;1.27;;
18596;SDS011;9428;50.950;6.912;2022-11-15T09:30:07;7.90;;;1.50;;
18596;SDS011;9428;50.950;6.912;2022-11-15T09:32:55;4.15;;;1.30;;
18596;SDS011;9428;50.950;6.912;2022-11-15T09:35:42;4.25;;;1.52;;
18596;SDS011;9428;50.950;6.912;2022-11-15T09:38:30;3.05;;;1.30;;
18596;SDS011;9428;50.950;6.912;2022-11-15T09:41:24;1.67;;;1.20;;
18596;SDS011;9428;50.950;6.912;2022-11-15T09:44:37;2.70;;;1.25;;
18596;SDS011;9428;50.950;6.912;2022-11-15T09:47:38;1.98;;;1.20;;
18596;SDS011;9428;50.950;6.912;2022-11-15T09:50:36;1.48;;;1.15;;
18596;SDS011;9428;50.950;6.912;2022-11-15T09:53:26;3.35;;;1.30;;
18596;SDS011;9428;50.950;6.912;2022-11-15T09:56:18;2.20;;;1.40;;
18596;SDS011;9428;50.950;6.912;2022-11-15T09:59:16;1.90;;;1.30;;
18596;SDS011;9428;50.950;6.912;2022-11-15T10:02:16;7.13;;;1.30;;
18596;SDS011;9428;50.950;6.912;2022-11-15T10:05:20;4.40;;;1.10;;
18596;SDS011;9428;50.950;6.912;2022-11-15T10:08:16;4.95;;;1.27;;
18596;SDS011;9428;50.950;6.912;2022-11-15T10:11:15;5.32;;;1.40;;
18596;SDS011;9428;50.950;6.912;2022-11-15T10:14:08;3.83;;;1.55;;
18596;SDS011;9428;50.950;6.912;2022-11-15T10:17:06;2.70;;;1.13;;
18596;SDS011;9428;50.950;6.912;2022-11-15T10:20:14;3.97;;;0.80;;
18596;SDS011;9428;50.950;6.912;2022-11-15T10:23:06;3.95;;;1.30;;
18596;SDS011;9428;50.950;6.912;2022-11-15T10:25:58;2.20;;;1.10;;
18596;SDS011;9428;50.950;6.912;2022-11-15T10:28:46;2.10;;;1.45;;
18596;SDS011;9428;50.950;6.912;2022-11-15T10:31:33;4.70;;;0.85;;
18596;SDS011;9428;50.950;6.912;2022-11-15T10:34:21;1.05;;;0.90;;
18596;SDS011;9428;50.950;6.912;2022-11-15T10:37:10;5.65;;;0.90;;
18596;SDS011;9428;50.950;6.912;2022-11-15T10:40:06;13.80;;;1.50;;
18596;SDS011;9428;50.950;6.912;2022-11-15T10:43:10;3.90;;;0.95;;
18596;SDS011;9428;50.950;6.912;2022-11-15T10:46:04;3.33;;;0.80;;
18596;SDS011;9428;50.950;6.912;2022-11-15T10:49:12;3.55;;;1.08;;
18596;SDS011;9428;50.950;6.912;2022-11-15T10:52:01;1.58;;;0.88;;
18596;SDS011;9428;50.950;6.912;2022-11-15T10:55:00;3.97;;;0.85;;
18596;SDS011;9428;50.950;6.912;2022-11-15T10:57:52;8.38;;;1.02;;
18596;SDS011;9428;50.950;6.912;2022-11-15T11:00:41;4.72;;;1.00;;
18596;SDS011;9428;50.950;6.912;2022-11-15T11:03:29;2.22;;;0.70;;
18596;SDS011;9428;50.950;6.912;2022-11-15T11:06:20;5.00;;;1.15;;
18596;SDS011;9428;50.950;6.912;2022-11-15T11:09:10;1.70;;;0.80;;
18596;SDS011;9428;50.950;6.912;2022-11-15T11:12:11;4.05;;;1.05;;
18596;SDS011;9428;50.950;6.912;2022-11-15T11:15:05;1.13;;;0.60;;
18596;SDS011;9428;50.950;6.912;2022-11-15T11:18:01;2.00;;;0.80;;
18596;SDS011;9428;50.950;6.912;2022-11-15T11:20:55;1.45;;;0.82;;
18596;SDS011;9428;50.950;6.912;2022-11-15T11:23:46;1.70;;;0.88;;
18596;SDS011;9428;50.950;6.912;2022-11-15T11:26:42;2.95;;;1.00;;
18596;SDS011;9428;50.950;6.912;2022-11-15T11:29:40;4.75;;;0.98;;
18596;SDS011;9428;50.950;6.912;2022-11-15T11:32:47;4.28;;;0.80;;
18596;SDS011;9428;50.950;6.912;2022-11-15T11:35:45;5.38;;;1.02;;
18596;SDS011;9428;50.950;6.912;2022-11-15T11:38:49;1.48;;;0.80;;
18596;SDS011;9428;50.950;6.912;2022-11-15T11:41:46;4.45;;;1.00;;
18596;SDS011;9428;50.950;6.912;2022-11-15T11:44:44;1.00;;;0.75;;
18596;SDS011;9428;50.950;6.912;2022-11-15T11:47:38;4.63;;;0.70;;
18596;SDS011;9428;50.950;6.912;2022-11-15T11:50:28;4.10;;;0.95;;
18596;SDS011;9428;50.950;6.912;2022-11-15T11:53:17;1.38;;;0.98;;
18596;SDS011;9428;50.950;6.912;2022-11-15T11:56:15;3.05;;;0.90;;
18596;SDS011;9428;50.950;6.912;2022-11-15T11:59:10;4.47;;;0.93;;
18596;SDS011;9428;50.950;6.912;2022-11-15T12:02:09;1.80;;;0.88;;
18596;SDS011;9428;50.950;6.912;2022-11-15T12:05:04;2.50;;;1.02;;
18596;SDS011;9428;50.950;6.912;2022-11-15T12:07:59;3.95;;;0.80;;
18596;SDS011;9428;50.950;6.912;2022-11-15T12:10:53;4.85;;;1.00;;
18596;SDS011;9428;50.950;6.912;2022-11-15T12:13:50;4.28;;;1.23;;
18596;SDS011;9428;50.950;6.912;2022-11-15T12:16:44;2.72;;;0.90;;
18596;SDS011;9428;50.950;6.912;2022-11-15T12:19:32;6.72;;;1.02;;
18596;SDS011;9428;50.950;6.912;2022-11-15T12:22:21;8.77;;;1.52;;
18596;SDS011;9428;50.950;6.912;2022-11-15T12:25:16;2.90;;;1.02;;
18596;SDS011;9428;50.950;6.912;2022-11-15T12:28:07;2.47;;;1.00;;
18596;SDS011;9428;50.950;6.912;2022-11-15T12:31:01;5.07;;;0.95;;
18596;SDS011;9428;50.950;6.912;2022-11-15T12:33:57;2.15;;;0.82;;
18596;SDS011;9428;50.950;6.912;2022-11-15T12:36:45;2.03;;;0.82;;
18596;SDS011;9428;50.950;6.912;2022-11-15T12:50:11;2.08;;;1.40;;
18596;SDS011;9428;50.950;6.912;2022-11-15T12:56:22;3.67;;;1.35;;
18596;SDS011;9428;50.950;6.912;2022-11-15T12:59:10;4.28;;;1.67;;
18596;SDS011;9428;50.950;6.912;2022-11-15T13:02:19;2.88;;;1.20;;
18596;SDS011;9428;50.950;6.912;2022-11-15T13:08:43;2.65;;;1.38;;
18596;SDS011;9428;50.950;6.912;2022-11-15T13:11:50;6.60;;;1.80;;
18596;SDS011;9428;50.950;6.912;2022-11-15T13:14:48;2.35;;;1.30;;
18596;SDS011;9428;50.950;6.912;2022-11-15T13:17:39;3.88;;;1.42;;
18596;SDS011;9428;50.950;6.912;2022-11-15T13:20:29;4.47;;;1.50;;
18596;SDS011;9428;50.950;6.912;2022-11-15T13:23:17;4.20;;;1.40;;
18596;SDS011;9428;50.950;6.912;2022-11-15T13:26:08;4.32;;;2.08;;
18596;SDS011;9428;50.950;6.912;2022-11-15T13:28:59;2.38;;;1.33;;
18596;SDS011;9428;50.950;6.912;2022-11-15T13:31:47;5.68;;;1.63;;
18596;SDS011;9428;50.950;6.912;2022-11-15T13:34:36;4.13;;;1.77;;
18596;SDS011;9428;50.950;6.912;2022-11-15T13:37:27;4.72;;;1.92;;
18596;SDS011;9428;50.950;6.912;2022-11-15T13:40:24;5.50;;;2.08;;
18596;SDS011;9428;50.950;6.912;2022-11-15T13:43:17;3.75;;;2.00;;
18596;SDS011;9428;50.950;6.912;2022-11-15T13:46:15;7.57;;;2.30;;
18596;SDS011;9428;50.950;6.912;2022-11-15T13:49:05;3.75;;;2.00;;
18596;SDS011;9428;50.950;6.912;2022-11-15T13:51:58;7.15;;;2.78;;
18596;SDS011;9428;50.950;6.912;2022-11-15T13:54:50;6.75;;;2.45;;
18596;SDS011;9428;50.950;6.912;2022-11-15T13:57:44;4.30;;;2.30;;
18596;SDS011;9428;50.950;6.912;2022-11-15T14:00:34;5.07;;;3.25;;
18596;SDS011;9428;50.950;6.912;2022-11-15T14:03:24;6.50;;;2.13;;
18596;SDS011;9428;50.950;6.912;2022-11-15T14:06:15;3.75;;;2.00;;
18596;SDS011;9428;50.950;6.912;2022-11-15T14:12:26;3.70;;;2.40;;
18596;SDS011;9428;50.950;6.912;2022-11-15T14:15:19;8.13;;;2.83;;
18596;SDS011;9428;50.950;6.912;2022-11-15T14:21:32;3.63;;;2.72;;
18596;SDS011;9428;50.950;6.912;2022-11-15T14:24:21;3.80;;;2.20;;
18596;SDS011;9428;50.950;6.912;2022-11-15T14:27:23;3.55;;;2.80;;
18596;SDS011;9428;50.950;6.912;2022-11-15T14:30:13;6.13;;;2.83;;
18596;SDS011;9428;50.950;6.912;2022-11-15T14:33:01;6.35;;;2.30;;
18596;SDS011;9428;50.950;6.912;2022-11-15T14:36:03;6.38;;;2.63;;
18596;SDS011;9428;50.950;6.912;2022-11-15T14:38:52;7.28;;;2.50;;
18596;SDS011;9428;50.950;6.912;2022-11-15T14:41:39;4.72;;;2.05;;
18596;SDS011;9428;50.950;6.912;2022-11-15T14:44:28;4.95;;;2.20;;
18596;SDS011;9428;50.950;6.912;2022-11-15T14:47:15;5.38;;;2.13;;
18596;SDS011;9428;50.950;6.912;2022-11-15T14:50:03;6.63;;;2.75;;
18596;SDS011;9428;50.950;6.912;2022-11-15T14:52:50;4.00;;;2.90;;
18596;SDS011;9428;50.950;6.912;2022-11-15T14:55:38;7.10;;;2.70;;
18596;SDS011;9428;50.950;6.912;2022-11-15T14:58:25;3.88;;;2.45;;
18596;SDS011;9428;50.950;6.912;2022-11-15T15:01:19;6.10;;;2.30;;
18596;SDS011;9428;50.950;6.912;2022-11-15T15:04:08;5.10;;;2.28;;
18596;SDS011;9428;50.950;6.912;2022-11-15T15:06:56;4.00;;;2.30;;
18596;SDS011;9428;50.950;6.912;2022-11-15T15:09:46;3.58;;;2.28;;
18596;SDS011;9428;50.950;6.912;2022-11-15T15:12:35;3.78;;;2.05;;
18596;SDS011;9428;50.950;6.912;2022-11-15T15:15:23;6.10;;;1.60;;
18596;SDS011;9428;50.950;6.912;2022-11-15T15:18:13;10.13;;;2.58;;
18596;SDS011;9428;50.950;6.912;2022-11-15T15:21:01;3.78;;;1.85;;
18596;SDS011;9428;50.950;6.912;2022-11-15T15:23:53;5.28;;;2.30;;
18596;SDS011;9428;50.950;6.912;2022-11-15T15:26:40;3.38;;;1.90;;
18596;SDS011;9428;50.950;6.912;2022-11-15T15:29:29;3.03;;;1.70;;
18596;SDS011;9428;50.950;6.912;2022-11-15T15:32:16;2.47;;;1.90;;
18596;SDS011;9428;50.950;6.912;2022-11-15T15:35:05;4.88;;;1.80;;
18596;SDS011;9428;50.950;6.912;2022-11-15T15:37:55;6.18;;;2.53;;
18596;SDS011;9428;50.950;6.912;2022-11-15T15:40:45;6.57;;;3.33;;
18596;SDS011;9428;50.950;6.912;2022-11-15T15:43:32;5.13;;;3.05;;
18596;SDS011;9428;50.950;6.912;2022-11-15T15:46:19;5.15;;;2.42;;
18596;SDS011;9428;50.950;6.912;2022-11-15T15:49:08;5.70;;;2.08;;
18596;SDS011;9428;50.950;6.912;2022-11-15T15:51:58;2.78;;;1.95;;
18596;SDS011;9428;50.950;6.912;2022-11-15T15:54:45;5.50;;;2.20;;
18596;SDS011;9428;50.950;6.912;2022-11-15T15:57:32;4.10;;;1.90;;
18596;SDS011;9428;50.950;6.912;2022-11-15T16:00:20;3.60;;;2.00;;
18596;SDS011;9428;50.950;6.912;2022-11-15T16:03:10;4.45;;;2.15;;
18596;SDS011;9428;50.950;6.912;2022-11-15T16:05:57;6.43;;;2.53;;
18596;SDS011;9428;50.950;6.912;2022-11-15T16:08:46;7.07;;;2.60;;
18596;SDS011;9428;50.950;6.912;2022-11-15T16:11:33;5.38;;;2.60;;
18596;SDS011;9428;50.950;6.912;2022-11-15T16:14:20;3.20;;;1.80;;
18596;SDS011;9428;50.950;6.912;2022-11-15T16:17:08;5.57;;;2.22;;
18596;SDS011;9428;50.950;6.912;2022-11-15T16:20:02;6.57;;;2.67;;
18596;SDS011;9428;50.950;6.912;2022-11-15T16:22:50;4.50;;;2.75;;
18596;SDS011;9428;50.950;6.912;2022-11-15T16:25:49;7.30;;;3.17;;
18596;SDS011;9428;50.950;6.912;2022-11-15T16:28:40;5.22;;;2.47;;
18596;SDS011;9428;50.950;6.912;2022-11-15T16:31:27;4.75;;;2.25;;
18596;SDS011;9428;50.950;6.912;2022-11-15T16:34:14;6.13;;;3.33;;
18596;SDS011;9428;50.950;6.912;2022-11-15T16:37:02;5.60;;;2.60;;
18596;SDS011;9428;50.950;6.912;2022-11-15T16:39:51;6.22;;;3.22;;
18596;SDS011;9428;50.950;6.912;2022-11-15T16:42:40;5.55;;;2.22;;
18596;SDS011;9428;50.950;6.912;2022-11-15T16:45:27;3.80;;;2.80;;
18596;SDS011;9428;50.950;6.912;2022-11-15T16:48:19;4.07;;;2.70;;
18596;SDS011;9428;50.950;6.912;2022-11-15T16:51:09;4.15;;;2.55;;
18596;SDS011;9428;50.950;6.912;2022-11-15T16:53:56;4.75;;;2.28;;
18596;SDS011;9428;50.950;6.912;2022-11-15T16:56:44;2.97;;;2.30;;
18596;SDS011;9428;50.950;6.912;2022-11-15T16:59:33;6.38;;;2.38;;
18596;SDS011;9428;50.950;6.912;2022-11-15T17:02:21;4.50;;;2.13;;
18596;SDS011;9428;50.950;6.912;2022-11-15T17:05:08;3.72;;;2.33;;
18596;SDS011;9428;50.950;6.912;2022-11-15T17:07:55;3.75;;;2.13;;
18596;SDS011;9428;50.950;6.912;2022-11-15T17:10:45;14.65;;;2.85;;
18596;SDS011;9428;50.950;6.912;2022-11-15T17:13:32;7.50;;;2.45;;
18596;SDS011;9428;50.950;6.912;2022-11-15T17:16:21;2.42;;;1.70;;
18596;SDS011;9428;50.950;6.912;2022-11-15T17:19:11;4.05;;;2.30;;
18596;SDS011;9428;50.950;6.912;2022-11-15T17:22:00;4.43;;;2.25;;
18596;SDS011;9428;50.950;6.912;2022-11-15T17:24:48;6.13;;;2.20;;
18596;SDS011;9428;50.950;6.912;2022-11-15T17:27:35;6.30;;;2.70;;
18596;SDS011;9428;50.950;6.912;2022-11-15T17:30:22;5.15;;;2.80;;
18596;SDS011;9428;50.950;6.912;2022-11-15T17:33:11;6.25;;;2.58;;
18596;SDS011;9428;50.950;6.912;2022-11-15T17:35:59;3.63;;;2.28;;
18596;SDS011;9428;50.950;6.912;2022-11-15T17:38:50;4.78;;;2.75;;
18596;SDS011;9428;50.950;6.912;2022-11-15T17:41:37;4.85;;;3.28;;
18596;SDS011;9428;50.950;6.912;2022-11-15T17:44:25;5.38;;;2.35;;